logo tempoitalia

Diretta Meteo Cordoba, Spagnalunedì 31 agosto ore 07:00

Mappa
Sereno 17 °C Sereno 24 Ore: T.min 14 T.max 37
Ponente Nord Km/h 1.8 Punto di rugiada: 10 °C Umidità: 63% Visibilità: 10 Km
Il sole sorge alle: 07:48 Il sole tramonta alle: 20:50
31 Agosto 2026 07:00 tempo osservato: Sereno Sereno 17 63 1016 vento: Nord N 1.8
31 Agosto 2026 06:30 tempo osservato: Sereno Sereno 16 72 1016 vento: Nord N 3.7
31 Agosto 2026 06:00 tempo osservato: Sereno Sereno 17 67 1016 vento: Nord N 1.8
31 Agosto 2026 05:30 tempo osservato: Sereno Sereno 17 72 1017 vento: Nord N 1.8
31 Agosto 2026 05:00 tempo osservato: Sereno Sereno 18 63 1017 vento: Nord N 0
31 Agosto 2026 04:30 tempo osservato: Sereno Sereno 18 63 1017 vento: Nord N 0
31 Agosto 2026 04:00 tempo osservato: Sereno Sereno 19 59 1017 vento: Nord N 3.7
31 Agosto 2026 03:30 tempo osservato: Sereno Sereno 20 56 1016 vento: Nord N 1.8
31 Agosto 2026 03:00 tempo osservato: Sereno Sereno 21 56 1016 vento: Nord N 0
31 Agosto 2026 02:30 tempo osservato: Sereno Sereno 20 56 1016 vento: Nord N 5.5
31 Agosto 2026 02:00 tempo osservato: Sereno Sereno 20 56 1016 vento: Nord N 3.7
31 Agosto 2026 01:30 tempo osservato: Sereno Sereno 22 49 1016 vento: Nord N 0
31 Agosto 2026 01:00 tempo osservato: Sereno Sereno 24 41 1016 vento: Nord N 0
31 Agosto 2026 00:30 tempo osservato: Sereno Sereno 23 46 1016 vento: Nord N 1.8
31 Agosto 2026 00:00 tempo osservato: Sereno Sereno 24 43 1016 vento: Nord N 3.7
30 Agosto 2026 23:30 tempo osservato: Sereno Sereno 24 43 1015 vento: Nord N 3.7
30 Agosto 2026 23:00 tempo osservato: Sereno Sereno 24 43 1015 vento: Nord N 5.5
30 Agosto 2026 22:30 tempo osservato: Sereno Sereno 25 41 1015 vento: Nord N 1.8
30 Agosto 2026 22:00 tempo osservato: Sereno Sereno 27 34 1015 vento: Nord N 3.7
30 Agosto 2026 21:30 tempo osservato: Sereno Sereno 26 39 1014 vento: Nord O/SO 7.4
30 Agosto 2026 21:00 tempo osservato: Sereno Sereno 30 27 1014 vento: Nord O/SO 7.4
30 Agosto 2026 20:30 tempo osservato: Sereno Sereno 34 18 1014 vento: Nord O 9.3
30 Agosto 2026 20:00 tempo osservato: Sereno Sereno 35 15 1014 vento: Nord O 9.3
30 Agosto 2026 19:30 tempo osservato: Sereno Sereno 36 12 1014 vento: Nord O 9.3
30 Agosto 2026 19:00 tempo osservato: Sereno Sereno 37 12 1014 vento: Nord S/SO 9.3
30 Agosto 2026 18:30 tempo osservato: Sereno Sereno 37 12 1014 vento: Nord O/SO 9.3
30 Agosto 2026 18:00 tempo osservato: Sereno Sereno 37 12 1014 vento: Nord N 9.3
30 Agosto 2026 17:30 tempo osservato: Sereno Sereno 37 13 1014 vento: Nord O/SO 13
30 Agosto 2026 17:00 tempo osservato: Sereno Sereno 37 13 1015 vento: Nord O/SO 7.4
30 Agosto 2026 16:30 tempo osservato: Sereno Sereno 36 14 1015 vento: Nord O/SO 9.3
30 Agosto 2026 16:00 tempo osservato: Sereno Sereno 36 14 1015 vento: Nord O 9.3
30 Agosto 2026 15:30 tempo osservato: Sereno Sereno 35 17 1016 vento: Nord O/NO 9.3
30 Agosto 2026 15:00 tempo osservato: Sereno Sereno 35 20 1016 vento: Nord SO 7.4
30 Agosto 2026 14:30 tempo osservato: Sereno Sereno 34 21 1016 vento: Nord N 5.5
30 Agosto 2026 14:00 tempo osservato: Sereno Sereno 33 22 1017 vento: Nord O 7.4
30 Agosto 2026 13:30 tempo osservato: Sereno Sereno 32 22 1017 vento: Nord N 1.8
30 Agosto 2026 13:00 tempo osservato: Sereno Sereno 31 23 1017 vento: Nord N 3.7
30 Agosto 2026 12:30 tempo osservato: Sereno Sereno 30 27 1018 vento: Nord N 3.7
30 Agosto 2026 12:00 tempo osservato: Sereno Sereno 28 30 1018 vento: Nord N 5.5
30 Agosto 2026 11:30 tempo osservato: Sereno Sereno 27 30 1018 vento: Nord E/NE 7.4
30 Agosto 2026 11:00 tempo osservato: Sereno Sereno 25 33 1018 vento: Nord E 11.1
30 Agosto 2026 10:30 tempo osservato: Sereno Sereno 23 35 1018 vento: Nord E 13
30 Agosto 2026 10:00 tempo osservato: Sereno Sereno 21 40 1018 vento: Nord E 11.1
30 Agosto 2026 09:30 tempo osservato: Sereno Sereno 20 45 1018 vento: Nord E 7.4
30 Agosto 2026 09:00 tempo osservato: Sereno Sereno 17 59 1018 vento: Nord N 0
30 Agosto 2026 08:30 tempo osservato: Sereno Sereno 15 67 1017 vento: Nord N 1.8
30 Agosto 2026 08:00 tempo osservato: Sereno Sereno 14 67 1017 vento: Nord N 0